sensor_id;sensor_type;location;lat;lon;timestamp;P1;durP1;ratioP1;P2;durP2;ratioP2
48205;SDS011;33995;48.202;16.260;2023-02-08T00:01:59;28.30;;;19.17;;
48205;SDS011;33995;48.202;16.260;2023-02-08T00:04:31;30.87;;;20.00;;
48205;SDS011;33995;48.202;16.260;2023-02-08T00:06:58;31.93;;;20.63;;
48205;SDS011;33995;48.202;16.260;2023-02-08T00:09:32;33.17;;;21.33;;
48205;SDS011;33995;48.202;16.260;2023-02-08T00:12:02;34.50;;;21.73;;
48205;SDS011;33995;48.202;16.260;2023-02-08T00:14:32;31.10;;;20.47;;
48205;SDS011;33995;48.202;16.260;2023-02-08T00:17:02;32.90;;;20.83;;
48205;SDS011;33995;48.202;16.260;2023-02-08T00:19:34;32.77;;;20.33;;
48205;SDS011;33995;48.202;16.260;2023-02-08T00:22:09;30.37;;;21.20;;
48205;SDS011;33995;48.202;16.260;2023-02-08T00:24:39;31.90;;;21.30;;
48205;SDS011;33995;48.202;16.260;2023-02-08T00:27:10;31.63;;;20.60;;
48205;SDS011;33995;48.202;16.260;2023-02-08T00:29:40;32.10;;;21.00;;
48205;SDS011;33995;48.202;16.260;2023-02-08T00:32:18;31.37;;;21.17;;
48205;SDS011;33995;48.202;16.260;2023-02-08T00:34:48;31.00;;;20.17;;
48205;SDS011;33995;48.202;16.260;2023-02-08T00:37:18;31.07;;;20.90;;
48205;SDS011;33995;48.202;16.260;2023-02-08T00:39:50;31.57;;;20.73;;
48205;SDS011;33995;48.202;16.260;2023-02-08T00:42:24;30.73;;;21.13;;
48205;SDS011;33995;48.202;16.260;2023-02-08T00:44:55;31.57;;;20.67;;
48205;SDS011;33995;48.202;16.260;2023-02-08T00:47:23;30.90;;;20.40;;
48205;SDS011;33995;48.202;16.260;2023-02-08T00:49:55;33.30;;;21.97;;
48205;SDS011;33995;48.202;16.260;2023-02-08T00:52:26;32.80;;;21.37;;
48205;SDS011;33995;48.202;16.260;2023-02-08T00:55:03;32.73;;;20.83;;
48205;SDS011;33995;48.202;16.260;2023-02-08T00:57:35;29.87;;;19.73;;
48205;SDS011;33995;48.202;16.260;2023-02-08T01:00:06;32.70;;;20.90;;
48205;SDS011;33995;48.202;16.260;2023-02-08T01:02:37;30.50;;;20.33;;
48205;SDS011;33995;48.202;16.260;2023-02-08T01:05:07;30.93;;;20.20;;
48205;SDS011;33995;48.202;16.260;2023-02-08T01:07:39;31.50;;;20.03;;
48205;SDS011;33995;48.202;16.260;2023-02-08T01:10:10;30.67;;;21.20;;
48205;SDS011;33995;48.202;16.260;2023-02-08T01:12:40;34.27;;;20.97;;
48205;SDS011;33995;48.202;16.260;2023-02-08T01:15:07;31.37;;;19.17;;
48205;SDS011;33995;48.202;16.260;2023-02-08T01:17:37;32.07;;;20.40;;
48205;SDS011;33995;48.202;16.260;2023-02-08T01:20:09;27.87;;;19.00;;
48205;SDS011;33995;48.202;16.260;2023-02-08T01:22:40;29.77;;;19.03;;
48205;SDS011;33995;48.202;16.260;2023-02-08T01:25:09;27.97;;;18.00;;
48205;SDS011;33995;48.202;16.260;2023-02-08T01:27:40;29.20;;;17.90;;
48205;SDS011;33995;48.202;16.260;2023-02-08T01:30:12;25.07;;;17.43;;
48205;SDS011;33995;48.202;16.260;2023-02-08T01:32:48;28.23;;;17.57;;
48205;SDS011;33995;48.202;16.260;2023-02-08T01:35:18;27.07;;;18.10;;
48205;SDS011;33995;48.202;16.260;2023-02-08T01:37:48;28.47;;;18.63;;
48205;SDS011;33995;48.202;16.260;2023-02-08T01:40:30;26.10;;;17.40;;
48205;SDS011;33995;48.202;16.260;2023-02-08T01:43:00;27.40;;;18.00;;
48205;SDS011;33995;48.202;16.260;2023-02-08T01:45:30;27.20;;;17.73;;
48205;SDS011;33995;48.202;16.260;2023-02-08T01:48:08;26.53;;;17.07;;
48205;SDS011;33995;48.202;16.260;2023-02-08T01:51:00;27.33;;;18.03;;
48205;SDS011;33995;48.202;16.260;2023-02-08T01:53:33;29.23;;;18.30;;
48205;SDS011;33995;48.202;16.260;2023-02-08T01:56:12;26.43;;;17.93;;
48205;SDS011;33995;48.202;16.260;2023-02-08T01:59:05;26.70;;;17.80;;
48205;SDS011;33995;48.202;16.260;2023-02-08T02:01:50;27.43;;;17.23;;
48205;SDS011;33995;48.202;16.260;2023-02-08T02:04:20;25.40;;;16.80;;
48205;SDS011;33995;48.202;16.260;2023-02-08T02:06:50;26.87;;;17.27;;
48205;SDS011;33995;48.202;16.260;2023-02-08T02:09:37;27.93;;;17.60;;
48205;SDS011;33995;48.202;16.260;2023-02-08T02:12:12;28.90;;;18.70;;
48205;SDS011;33995;48.202;16.260;2023-02-08T02:14:49;25.17;;;17.23;;
48205;SDS011;33995;48.202;16.260;2023-02-08T02:17:20;25.90;;;17.43;;
48205;SDS011;33995;48.202;16.260;2023-02-08T02:31:59;24.57;;;16.53;;
48205;SDS011;33995;48.202;16.260;2023-02-08T02:45:17;27.63;;;16.87;;
48205;SDS011;33995;48.202;16.260;2023-02-08T02:47:28;26.23;;;17.03;;
48205;SDS011;33995;48.202;16.260;2023-02-08T02:55:47;27.83;;;17.90;;
48205;SDS011;33995;48.202;16.260;2023-02-08T02:58:25;30.10;;;18.40;;
48205;SDS011;33995;48.202;16.260;2023-02-08T03:00:56;27.53;;;17.30;;
48205;SDS011;33995;48.202;16.260;2023-02-08T03:03:29;31.43;;;18.47;;
48205;SDS011;33995;48.202;16.260;2023-02-08T03:06:24;27.40;;;17.97;;
48205;SDS011;33995;48.202;16.260;2023-02-08T03:09:24;28.80;;;17.83;;
48205;SDS011;33995;48.202;16.260;2023-02-08T03:21:32;28.93;;;17.53;;
48205;SDS011;33995;48.202;16.260;2023-02-08T03:27:03;27.63;;;17.97;;
48205;SDS011;33995;48.202;16.260;2023-02-08T03:30:15;28.17;;;17.53;;
48205;SDS011;33995;48.202;16.260;2023-02-08T03:35:52;28.13;;;17.83;;
48205;SDS011;33995;48.202;16.260;2023-02-08T03:38:28;28.67;;;17.77;;
48205;SDS011;33995;48.202;16.260;2023-02-08T03:40:59;28.40;;;18.57;;
48205;SDS011;33995;48.202;16.260;2023-02-08T03:43:46;31.47;;;19.00;;
48205;SDS011;33995;48.202;16.260;2023-02-08T03:46:23;31.23;;;19.43;;
48205;SDS011;33995;48.202;16.260;2023-02-08T03:48:57;28.67;;;18.83;;
48205;SDS011;33995;48.202;16.260;2023-02-08T03:51:32;31.83;;;19.53;;
48205;SDS011;33995;48.202;16.260;2023-02-08T03:54:07;33.30;;;19.87;;
48205;SDS011;33995;48.202;16.260;2023-02-08T03:59:20;27.33;;;18.30;;
48205;SDS011;33995;48.202;16.260;2023-02-08T04:01:59;32.10;;;19.63;;
48205;SDS011;33995;48.202;16.260;2023-02-08T04:04:29;31.37;;;19.00;;
48205;SDS011;33995;48.202;16.260;2023-02-08T04:07:02;31.53;;;19.43;;
48205;SDS011;33995;48.202;16.260;2023-02-08T04:09:31;29.33;;;18.80;;
48205;SDS011;33995;48.202;16.260;2023-02-08T04:12:05;31.47;;;19.60;;
48205;SDS011;33995;48.202;16.260;2023-02-08T04:14:33;28.73;;;18.57;;
48205;SDS011;33995;48.202;16.260;2023-02-08T04:17:08;30.90;;;19.30;;
48205;SDS011;33995;48.202;16.260;2023-02-08T04:19:39;31.60;;;19.80;;
48205;SDS011;33995;48.202;16.260;2023-02-08T04:22:07;30.60;;;19.63;;
48205;SDS011;33995;48.202;16.260;2023-02-08T04:24:38;32.07;;;20.10;;
48205;SDS011;33995;48.202;16.260;2023-02-08T04:27:09;32.00;;;19.43;;
48205;SDS011;33995;48.202;16.260;2023-02-08T04:29:45;30.43;;;19.63;;
48205;SDS011;33995;48.202;16.260;2023-02-08T04:32:17;30.13;;;18.70;;
48205;SDS011;33995;48.202;16.260;2023-02-08T04:34:47;31.07;;;18.63;;
48205;SDS011;33995;48.202;16.260;2023-02-08T04:37:17;33.87;;;20.40;;
48205;SDS011;33995;48.202;16.260;2023-02-08T04:39:48;30.83;;;19.67;;
48205;SDS011;33995;48.202;16.260;2023-02-08T04:42:19;30.53;;;19.13;;
48205;SDS011;33995;48.202;16.260;2023-02-08T04:44:50;33.17;;;20.47;;
48205;SDS011;33995;48.202;16.260;2023-02-08T04:47:22;32.30;;;20.50;;
48205;SDS011;33995;48.202;16.260;2023-02-08T04:49:54;30.13;;;20.47;;
48205;SDS011;33995;48.202;16.260;2023-02-08T04:52:26;30.73;;;19.43;;
48205;SDS011;33995;48.202;16.260;2023-02-08T04:55:09;31.77;;;19.93;;
48205;SDS011;33995;48.202;16.260;2023-02-08T04:57:45;34.47;;;20.50;;
48205;SDS011;33995;48.202;16.260;2023-02-08T05:00:17;30.33;;;19.13;;
48205;SDS011;33995;48.202;16.260;2023-02-08T05:02:47;31.40;;;19.53;;
48205;SDS011;33995;48.202;16.260;2023-02-08T05:05:19;30.83;;;19.30;;
48205;SDS011;33995;48.202;16.260;2023-02-08T05:07:49;31.03;;;19.43;;
48205;SDS011;33995;48.202;16.260;2023-02-08T05:10:23;30.70;;;20.00;;
48205;SDS011;33995;48.202;16.260;2023-02-08T05:12:53;30.70;;;19.57;;
48205;SDS011;33995;48.202;16.260;2023-02-08T05:15:24;34.50;;;20.43;;
48205;SDS011;33995;48.202;16.260;2023-02-08T05:17:57;31.37;;;19.90;;
48205;SDS011;33995;48.202;16.260;2023-02-08T05:20:25;32.87;;;20.70;;
48205;SDS011;33995;48.202;16.260;2023-02-08T05:22:59;31.07;;;19.57;;
48205;SDS011;33995;48.202;16.260;2023-02-08T05:25:29;32.63;;;20.53;;
48205;SDS011;33995;48.202;16.260;2023-02-08T05:28:00;32.77;;;20.23;;
48205;SDS011;33995;48.202;16.260;2023-02-08T05:30:28;37.67;;;21.73;;
48205;SDS011;33995;48.202;16.260;2023-02-08T05:32:59;35.47;;;19.77;;
48205;SDS011;33995;48.202;16.260;2023-02-08T05:35:31;32.20;;;19.80;;
48205;SDS011;33995;48.202;16.260;2023-02-08T05:38:03;39.57;;;24.33;;
48205;SDS011;33995;48.202;16.260;2023-02-08T05:40:35;54.27;;;32.70;;
48205;SDS011;33995;48.202;16.260;2023-02-08T05:43:07;89.30;;;53.43;;
48205;SDS011;33995;48.202;16.260;2023-02-08T05:45:36;62.87;;;41.03;;
48205;SDS011;33995;48.202;16.260;2023-02-08T05:48:07;46.97;;;29.80;;
48205;SDS011;33995;48.202;16.260;2023-02-08T05:50:38;42.90;;;29.47;;
48205;SDS011;33995;48.202;16.260;2023-02-08T05:53:13;40.80;;;25.77;;
48205;SDS011;33995;48.202;16.260;2023-02-08T05:55:47;38.33;;;26.33;;
48205;SDS011;33995;48.202;16.260;2023-02-08T05:58:17;34.63;;;22.83;;
48205;SDS011;33995;48.202;16.260;2023-02-08T06:00:47;34.30;;;22.30;;
48205;SDS011;33995;48.202;16.260;2023-02-08T06:03:23;37.77;;;22.23;;
48205;SDS011;33995;48.202;16.260;2023-02-08T06:05:54;36.20;;;22.50;;
48205;SDS011;33995;48.202;16.260;2023-02-08T06:08:28;33.17;;;21.50;;
48205;SDS011;33995;48.202;16.260;2023-02-08T06:11:04;33.80;;;23.03;;
48205;SDS011;33995;48.202;16.260;2023-02-08T06:13:37;32.03;;;21.73;;
48205;SDS011;33995;48.202;16.260;2023-02-08T06:16:11;35.03;;;21.13;;
48205;SDS011;33995;48.202;16.260;2023-02-08T06:18:42;34.60;;;21.37;;
48205;SDS011;33995;48.202;16.260;2023-02-08T06:21:11;35.20;;;21.53;;
48205;SDS011;33995;48.202;16.260;2023-02-08T06:23:40;36.57;;;22.30;;
48205;SDS011;33995;48.202;16.260;2023-02-08T06:26:09;32.83;;;21.90;;
48205;SDS011;33995;48.202;16.260;2023-02-08T06:28:40;40.23;;;22.67;;
48205;SDS011;33995;48.202;16.260;2023-02-08T06:31:09;36.67;;;22.33;;
48205;SDS011;33995;48.202;16.260;2023-02-08T06:33:37;35.60;;;22.00;;
48205;SDS011;33995;48.202;16.260;2023-02-08T06:36:10;37.00;;;23.20;;
48205;SDS011;33995;48.202;16.260;2023-02-08T06:38:41;37.60;;;22.60;;
48205;SDS011;33995;48.202;16.260;2023-02-08T06:41:12;36.70;;;21.97;;
48205;SDS011;33995;48.202;16.260;2023-02-08T06:43:41;36.57;;;22.53;;
48205;SDS011;33995;48.202;16.260;2023-02-08T06:46:12;34.07;;;21.93;;
48205;SDS011;33995;48.202;16.260;2023-02-08T06:48:48;36.03;;;22.43;;
48205;SDS011;33995;48.202;16.260;2023-02-08T06:51:19;37.37;;;23.00;;
48205;SDS011;33995;48.202;16.260;2023-02-08T06:53:50;40.97;;;23.63;;
48205;SDS011;33995;48.202;16.260;2023-02-08T06:56:22;38.70;;;23.00;;
48205;SDS011;33995;48.202;16.260;2023-02-08T06:58:50;38.03;;;22.70;;
48205;SDS011;33995;48.202;16.260;2023-02-08T07:01:20;37.33;;;22.67;;
48205;SDS011;33995;48.202;16.260;2023-02-08T07:03:50;34.67;;;21.43;;
48205;SDS011;33995;48.202;16.260;2023-02-08T07:06:21;35.90;;;23.33;;
48205;SDS011;33995;48.202;16.260;2023-02-08T07:08:53;41.13;;;24.47;;
48205;SDS011;33995;48.202;16.260;2023-02-08T07:11:21;58.13;;;37.27;;
48205;SDS011;33995;48.202;16.260;2023-02-08T07:13:50;47.07;;;30.73;;
48205;SDS011;33995;48.202;16.260;2023-02-08T07:16:24;45.80;;;29.67;;
48205;SDS011;33995;48.202;16.260;2023-02-08T07:18:57;42.30;;;25.80;;
48205;SDS011;33995;48.202;16.260;2023-02-08T07:21:24;41.20;;;24.80;;
48205;SDS011;33995;48.202;16.260;2023-02-08T07:23:55;49.20;;;33.40;;
48205;SDS011;33995;48.202;16.260;2023-02-08T07:26:26;38.90;;;24.67;;
48205;SDS011;33995;48.202;16.260;2023-02-08T07:28:57;41.07;;;25.47;;
48205;SDS011;33995;48.202;16.260;2023-02-08T07:31:25;36.40;;;25.00;;
48205;SDS011;33995;48.202;16.260;2023-02-08T07:33:58;37.37;;;24.13;;
48205;SDS011;33995;48.202;16.260;2023-02-08T07:36:27;36.80;;;23.27;;
48205;SDS011;33995;48.202;16.260;2023-02-08T07:39:02;40.07;;;25.40;;
48205;SDS011;33995;48.202;16.260;2023-02-08T07:41:34;44.37;;;27.70;;
48205;SDS011;33995;48.202;16.260;2023-02-08T07:44:04;38.60;;;25.37;;
48205;SDS011;33995;48.202;16.260;2023-02-08T07:46:33;39.37;;;24.77;;
48205;SDS011;33995;48.202;16.260;2023-02-08T07:49:01;38.13;;;24.37;;
48205;SDS011;33995;48.202;16.260;2023-02-08T07:51:31;37.90;;;24.53;;
48205;SDS011;33995;48.202;16.260;2023-02-08T07:54:01;39.10;;;24.80;;
48205;SDS011;33995;48.202;16.260;2023-02-08T07:56:28;40.03;;;24.37;;
48205;SDS011;33995;48.202;16.260;2023-02-08T07:58:58;70.23;;;37.30;;
48205;SDS011;33995;48.202;16.260;2023-02-08T08:01:27;69.23;;;38.80;;
48205;SDS011;33995;48.202;16.260;2023-02-08T08:03:59;98.07;;;49.33;;
48205;SDS011;33995;48.202;16.260;2023-02-08T08:06:30;54.00;;;33.43;;
48205;SDS011;33995;48.202;16.260;2023-02-08T08:08:57;39.53;;;26.93;;
48205;SDS011;33995;48.202;16.260;2023-02-08T08:11:28;39.53;;;27.00;;
48205;SDS011;33995;48.202;16.260;2023-02-08T08:14:01;39.17;;;26.93;;
48205;SDS011;33995;48.202;16.260;2023-02-08T08:16:32;40.67;;;27.03;;
48205;SDS011;33995;48.202;16.260;2023-02-08T08:19:02;38.10;;;26.80;;
48205;SDS011;33995;48.202;16.260;2023-02-08T08:21:31;37.70;;;25.87;;
48205;SDS011;33995;48.202;16.260;2023-02-08T08:24:01;39.27;;;27.73;;
48205;SDS011;33995;48.202;16.260;2023-02-08T08:26:32;39.10;;;25.67;;
48205;SDS011;33995;48.202;16.260;2023-02-08T08:29:01;36.43;;;26.10;;
48205;SDS011;33995;48.202;16.260;2023-02-08T08:31:32;35.57;;;24.53;;
48205;SDS011;33995;48.202;16.260;2023-02-08T08:34:06;39.27;;;27.37;;
48205;SDS011;33995;48.202;16.260;2023-02-08T08:36:37;37.37;;;25.80;;
48205;SDS011;33995;48.202;16.260;2023-02-08T08:39:08;38.07;;;25.93;;
48205;SDS011;33995;48.202;16.260;2023-02-08T08:41:37;38.97;;;24.93;;
48205;SDS011;33995;48.202;16.260;2023-02-08T08:44:09;41.43;;;26.93;;
48205;SDS011;33995;48.202;16.260;2023-02-08T08:46:38;38.33;;;25.87;;
48205;SDS011;33995;48.202;16.260;2023-02-08T08:49:09;37.60;;;25.50;;
48205;SDS011;33995;48.202;16.260;2023-02-08T08:51:41;40.20;;;25.03;;
48205;SDS011;33995;48.202;16.260;2023-02-08T08:54:21;35.07;;;25.30;;
48205;SDS011;33995;48.202;16.260;2023-02-08T08:56:53;38.77;;;26.07;;
48205;SDS011;33995;48.202;16.260;2023-02-08T08:59:22;38.93;;;26.53;;
48205;SDS011;33995;48.202;16.260;2023-02-08T09:01:58;37.90;;;24.73;;
48205;SDS011;33995;48.202;16.260;2023-02-08T09:04:28;43.30;;;27.53;;
48205;SDS011;33995;48.202;16.260;2023-02-08T09:06:58;50.40;;;34.27;;
48205;SDS011;33995;48.202;16.260;2023-02-08T09:09:30;46.27;;;34.00;;
48205;SDS011;33995;48.202;16.260;2023-02-08T09:12:02;38.90;;;28.67;;
48205;SDS011;33995;48.202;16.260;2023-02-08T09:14:32;39.37;;;25.17;;
48205;SDS011;33995;48.202;16.260;2023-02-08T09:17:01;36.60;;;25.47;;
48205;SDS011;33995;48.202;16.260;2023-02-08T09:19:34;38.83;;;25.50;;
48205;SDS011;33995;48.202;16.260;2023-02-08T09:22:05;37.93;;;25.17;;
48205;SDS011;33995;48.202;16.260;2023-02-08T09:24:38;36.93;;;26.13;;
48205;SDS011;33995;48.202;16.260;2023-02-08T09:27:07;36.33;;;25.13;;
48205;SDS011;33995;48.202;16.260;2023-02-08T09:29:38;37.83;;;25.63;;
48205;SDS011;33995;48.202;16.260;2023-02-08T09:32:08;38.73;;;24.90;;
48205;SDS011;33995;48.202;16.260;2023-02-08T09:34:40;35.70;;;25.10;;
48205;SDS011;33995;48.202;16.260;2023-02-08T09:37:07;37.60;;;25.27;;
48205;SDS011;33995;48.202;16.260;2023-02-08T09:39:39;40.77;;;25.97;;
48205;SDS011;33995;48.202;16.260;2023-02-08T09:42:12;42.73;;;27.47;;
48205;SDS011;33995;48.202;16.260;2023-02-08T09:47:59;45.40;;;29.70;;
48205;SDS011;33995;48.202;16.260;2023-02-08T09:50:51;45.63;;;29.53;;
48205;SDS011;33995;48.202;16.260;2023-02-08T09:53:56;43.17;;;29.50;;
48205;SDS011;33995;48.202;16.260;2023-02-08T09:56:44;47.33;;;30.30;;
48205;SDS011;33995;48.202;16.260;2023-02-08T09:59:32;45.73;;;29.97;;
48205;SDS011;33995;48.202;16.260;2023-02-08T10:02:22;45.80;;;29.77;;
48205;SDS011;33995;48.202;16.260;2023-02-08T10:04:59;45.87;;;29.73;;
48205;SDS011;33995;48.202;16.260;2023-02-08T10:07:34;49.17;;;30.97;;
48205;SDS011;33995;48.202;16.260;2023-02-08T10:10:07;44.87;;;30.73;;
48205;SDS011;33995;48.202;16.260;2023-02-08T10:22:17;47.80;;;30.53;;
48205;SDS011;33995;48.202;16.260;2023-02-08T10:31:01;47.63;;;30.03;;
48205;SDS011;33995;48.202;16.260;2023-02-08T10:34:02;49.13;;;30.33;;
48205;SDS011;33995;48.202;16.260;2023-02-08T10:36:38;43.33;;;29.60;;
48205;SDS011;33995;48.202;16.260;2023-02-08T10:39:31;43.73;;;29.13;;
48205;SDS011;33995;48.202;16.260;2023-02-08T10:42:02;45.00;;;30.07;;
48205;SDS011;33995;48.202;16.260;2023-02-08T10:47:54;46.37;;;28.70;;
48205;SDS011;33995;48.202;16.260;2023-02-08T10:50:43;43.87;;;28.63;;
48205;SDS011;33995;48.202;16.260;2023-02-08T10:53:16;44.33;;;30.07;;
48205;SDS011;33995;48.202;16.260;2023-02-08T10:55:51;45.90;;;28.67;;
48205;SDS011;33995;48.202;16.260;2023-02-08T10:58:21;43.77;;;30.07;;
48205;SDS011;33995;48.202;16.260;2023-02-08T11:00:59;42.70;;;31.45;;
48205;SDS011;33995;48.202;16.260;2023-02-08T11:03:29;39.00;;;27.80;;
48205;SDS011;33995;48.202;16.260;2023-02-08T11:06:00;38.13;;;26.90;;
48205;SDS011;33995;48.202;16.260;2023-02-08T11:08:30;40.80;;;27.53;;
48205;SDS011;33995;48.202;16.260;2023-02-08T11:10:58;38.90;;;27.17;;
48205;SDS011;33995;48.202;16.260;2023-02-08T11:13:33;40.87;;;26.40;;
48205;SDS011;33995;48.202;16.260;2023-02-08T11:16:09;42.47;;;27.20;;
48205;SDS011;33995;48.202;16.260;2023-02-08T11:18:48;39.80;;;26.70;;
48205;SDS011;33995;48.202;16.260;2023-02-08T11:21:22;40.53;;;26.93;;
48205;SDS011;33995;48.202;16.260;2023-02-08T11:23:59;37.60;;;25.83;;
48205;SDS011;33995;48.202;16.260;2023-02-08T11:26:33;41.57;;;27.13;;
48205;SDS011;33995;48.202;16.260;2023-02-08T11:32:00;35.13;;;24.23;;
48205;SDS011;33995;48.202;16.260;2023-02-08T11:34:36;36.23;;;24.17;;
48205;SDS011;33995;48.202;16.260;2023-02-08T11:37:26;31.83;;;22.90;;
48205;SDS011;33995;48.202;16.260;2023-02-08T11:40:05;35.83;;;24.43;;
48205;SDS011;33995;48.202;16.260;2023-02-08T11:42:42;35.53;;;23.10;;
48205;SDS011;33995;48.202;16.260;2023-02-08T11:45:21;31.23;;;23.07;;
48205;SDS011;33995;48.202;16.260;2023-02-08T11:47:54;35.07;;;24.27;;
48205;SDS011;33995;48.202;16.260;2023-02-08T11:50:31;28.97;;;21.70;;
48205;SDS011;33995;48.202;16.260;2023-02-08T11:53:27;30.93;;;23.50;;
48205;SDS011;33995;48.202;16.260;2023-02-08T11:58:41;27.20;;;19.83;;
48205;SDS011;33995;48.202;16.260;2023-02-08T12:01:32;27.73;;;21.27;;
48205;SDS011;33995;48.202;16.260;2023-02-08T12:04:03;26.33;;;20.80;;
48205;SDS011;33995;48.202;16.260;2023-02-08T12:21:44;27.37;;;20.77;;
48205;SDS011;33995;48.202;16.260;2023-02-08T12:36:16;24.23;;;20.07;;
48205;SDS011;33995;48.202;16.260;2023-02-08T12:48:07;23.63;;;19.73;;
48205;SDS011;33995;48.202;16.260;2023-02-08T12:53:42;18.23;;;16.23;;
48205;SDS011;33995;48.202;16.260;2023-02-08T12:56:34;19.43;;;17.33;;
48205;SDS011;33995;48.202;16.260;2023-02-08T13:05:18;19.67;;;17.57;;
48205;SDS011;33995;48.202;16.260;2023-02-08T13:07:48;19.20;;;17.20;;
48205;SDS011;33995;48.202;16.260;2023-02-08T13:10:35;20.33;;;16.73;;
48205;SDS011;33995;48.202;16.260;2023-02-08T13:13:15;20.60;;;16.90;;
48205;SDS011;33995;48.202;16.260;2023-02-08T13:16:00;20.90;;;16.67;;
48205;SDS011;33995;48.202;16.260;2023-02-08T13:21:53;20.30;;;16.93;;
48205;SDS011;33995;48.202;16.260;2023-02-08T13:27:28;17.20;;;15.40;;
48205;SDS011;33995;48.202;16.260;2023-02-08T13:29:56;16.63;;;14.93;;
48205;SDS011;33995;48.202;16.260;2023-02-08T13:35:13;16.23;;;14.03;;
48205;SDS011;33995;48.202;16.260;2023-02-08T13:37:51;17.17;;;14.50;;
48205;SDS011;33995;48.202;16.260;2023-02-08T13:40:34;16.93;;;14.50;;
48205;SDS011;33995;48.202;16.260;2023-02-08T13:43:07;18.47;;;14.97;;
48205;SDS011;33995;48.202;16.260;2023-02-08T13:46:06;18.23;;;14.70;;
48205;SDS011;33995;48.202;16.260;2023-02-08T13:48:47;19.13;;;14.70;;
48205;SDS011;33995;48.202;16.260;2023-02-08T13:54:11;21.30;;;16.05;;
48205;SDS011;33995;48.202;16.260;2023-02-08T14:02:57;15.27;;;11.93;;
48205;SDS011;33995;48.202;16.260;2023-02-08T14:16:34;14.10;;;11.80;;
48205;SDS011;33995;48.202;16.260;2023-02-08T14:24:47;13.90;;;10.57;;
48205;SDS011;33995;48.202;16.260;2023-02-08T14:30:27;13.97;;;10.57;;
48205;SDS011;33995;48.202;16.260;2023-02-08T14:33:08;13.47;;;9.97;;
48205;SDS011;33995;48.202;16.260;2023-02-08T14:36:00;11.93;;;9.33;;
48205;SDS011;33995;48.202;16.260;2023-02-08T14:47:11;11.83;;;9.00;;
48205;SDS011;33995;48.202;16.260;2023-02-08T14:49:41;11.30;;;9.07;;
48205;SDS011;33995;48.202;16.260;2023-02-08T14:52:42;11.37;;;9.37;;
48205;SDS011;33995;48.202;16.260;2023-02-08T14:55:31;13.30;;;9.33;;
48205;SDS011;33995;48.202;16.260;2023-02-08T14:58:29;14.20;;;10.40;;
48205;SDS011;33995;48.202;16.260;2023-02-08T15:01:13;13.93;;;11.40;;
48205;SDS011;33995;48.202;16.260;2023-02-08T15:04:13;14.97;;;11.20;;
48205;SDS011;33995;48.202;16.260;2023-02-08T15:12:16;13.80;;;10.87;;
48205;SDS011;33995;48.202;16.260;2023-02-08T15:14:57;14.40;;;10.63;;
48205;SDS011;33995;48.202;16.260;2023-02-08T15:17:38;14.60;;;11.30;;
48205;SDS011;33995;48.202;16.260;2023-02-08T15:23:28;14.47;;;10.97;;
48205;SDS011;33995;48.202;16.260;2023-02-08T15:26:01;14.87;;;10.73;;
48205;SDS011;33995;48.202;16.260;2023-02-08T15:28:50;17.73;;;11.20;;
48205;SDS011;33995;48.202;16.260;2023-02-08T15:31:33;15.97;;;11.43;;
48205;SDS011;33995;48.202;16.260;2023-02-08T15:34:02;13.97;;;10.40;;
48205;SDS011;33995;48.202;16.260;2023-02-08T15:42:03;13.67;;;10.03;;
48205;SDS011;33995;48.202;16.260;2023-02-08T15:44:37;13.50;;;10.73;;
48205;SDS011;33995;48.202;16.260;2023-02-08T15:50:14;16.63;;;11.57;;
48205;SDS011;33995;48.202;16.260;2023-02-08T15:52:59;17.57;;;12.83;;
48205;SDS011;33995;48.202;16.260;2023-02-08T15:55:46;16.57;;;11.83;;
48205;SDS011;33995;48.202;16.260;2023-02-08T15:58:27;15.37;;;11.30;;
48205;SDS011;33995;48.202;16.260;2023-02-08T16:01:04;19.63;;;12.73;;
48205;SDS011;33995;48.202;16.260;2023-02-08T16:03:37;17.53;;;12.07;;
48205;SDS011;33995;48.202;16.260;2023-02-08T16:06:07;17.97;;;12.37;;
48205;SDS011;33995;48.202;16.260;2023-02-08T16:08:40;16.07;;;12.17;;
48205;SDS011;33995;48.202;16.260;2023-02-08T16:11:20;16.63;;;12.60;;
48205;SDS011;33995;48.202;16.260;2023-02-08T16:13:56;18.00;;;12.97;;
48205;SDS011;33995;48.202;16.260;2023-02-08T16:19:27;18.97;;;14.87;;
48205;SDS011;33995;48.202;16.260;2023-02-08T16:25:33;18.63;;;13.60;;
48205;SDS011;33995;48.202;16.260;2023-02-08T16:28:29;18.77;;;13.60;;
48205;SDS011;33995;48.202;16.260;2023-02-08T16:31:02;18.00;;;12.70;;
48205;SDS011;33995;48.202;16.260;2023-02-08T16:33:35;15.87;;;12.50;;
48205;SDS011;33995;48.202;16.260;2023-02-08T16:36:20;18.63;;;12.70;;
48205;SDS011;33995;48.202;16.260;2023-02-08T16:39:20;18.37;;;13.10;;
48205;SDS011;33995;48.202;16.260;2023-02-08T16:44:56;19.37;;;13.33;;
48205;SDS011;33995;48.202;16.260;2023-02-08T16:47:38;18.37;;;12.97;;
48205;SDS011;33995;48.202;16.260;2023-02-08T16:50:21;18.80;;;13.57;;
48205;SDS011;33995;48.202;16.260;2023-02-08T16:52:59;20.70;;;13.27;;
48205;SDS011;33995;48.202;16.260;2023-02-08T16:55:41;19.77;;;13.47;;
48205;SDS011;33995;48.202;16.260;2023-02-08T16:58:12;18.80;;;11.97;;
48205;SDS011;33995;48.202;16.260;2023-02-08T17:00:45;19.43;;;13.03;;
48205;SDS011;33995;48.202;16.260;2023-02-08T17:03:26;17.30;;;12.53;;
48205;SDS011;33995;48.202;16.260;2023-02-08T17:06:03;18.13;;;12.70;;
48205;SDS011;33995;48.202;16.260;2023-02-08T17:08:32;20.87;;;13.80;;
48205;SDS011;33995;48.202;16.260;2023-02-08T17:11:07;19.63;;;13.33;;
48205;SDS011;33995;48.202;16.260;2023-02-08T17:13:42;17.87;;;13.40;;
48205;SDS011;33995;48.202;16.260;2023-02-08T17:16:19;21.20;;;14.87;;
48205;SDS011;33995;48.202;16.260;2023-02-08T17:19:09;20.53;;;13.33;;
48205;SDS011;33995;48.202;16.260;2023-02-08T17:21:48;18.47;;;13.70;;
48205;SDS011;33995;48.202;16.260;2023-02-08T17:24:18;19.97;;;13.87;;
48205;SDS011;33995;48.202;16.260;2023-02-08T17:26:54;20.77;;;13.57;;
48205;SDS011;33995;48.202;16.260;2023-02-08T17:29:28;20.30;;;13.47;;
48205;SDS011;33995;48.202;16.260;2023-02-08T17:32:02;18.53;;;13.30;;
48205;SDS011;33995;48.202;16.260;2023-02-08T17:34:33;21.47;;;13.73;;
48205;SDS011;33995;48.202;16.260;2023-02-08T17:37:03;20.83;;;14.20;;
48205;SDS011;33995;48.202;16.260;2023-02-08T17:39:31;19.87;;;14.50;;
48205;SDS011;33995;48.202;16.260;2023-02-08T17:42:08;18.77;;;13.93;;
48205;SDS011;33995;48.202;16.260;2023-02-08T17:44:54;21.30;;;14.77;;
48205;SDS011;33995;48.202;16.260;2023-02-08T17:47:24;22.13;;;14.60;;
48205;SDS011;33995;48.202;16.260;2023-02-08T17:50:12;21.60;;;15.40;;
48205;SDS011;33995;48.202;16.260;2023-02-08T17:52:53;23.13;;;15.63;;
48205;SDS011;33995;48.202;16.260;2023-02-08T17:55:28;21.97;;;15.37;;
48205;SDS011;33995;48.202;16.260;2023-02-08T17:58:06;21.40;;;15.20;;
48205;SDS011;33995;48.202;16.260;2023-02-08T18:00:36;21.77;;;14.80;;
48205;SDS011;33995;48.202;16.260;2023-02-08T18:03:10;22.70;;;15.23;;
48205;SDS011;33995;48.202;16.260;2023-02-08T18:05:42;20.33;;;13.93;;